Andrea Onorato — IKFT — position and weather

sailwx.info

Track history (hours):
 
Tides and Currents Weather Stations Pressure Air Temp Water Temp Dewpoint Dewpoint Depression Visibility Wind Speed Wind Dir Waves Ship Positions

Andrea Onorato

Last reported at 2018-Apr-20 05:00 UTC. Time now 2018-Apr-20 05:10 UTC.
Position N 39°13' E 009°04'.

Length 32 m; draft 4.7 m.

Type: Tug. MMSI: 247090500.

Date/timePositionNaut miles runAvg speedWind from/ knotsBaromVisibWave heightAir tempDewpointWater temp
2018-Apr-20 05:00N 39°13' E 009°04'1 2.0
2018-Apr-20 04:30N 39°12' E 009°05'0 0.9
2018-Apr-20 04:00N 39°13' E 009°04'0 0.0
2018-Apr-20 03:30N 39°13' E 009°04'0 0.0
2018-Apr-20 02:59N 39°13' E 009°04'0 0.0
2018-Apr-20 02:30N 39°13' E 009°04'0 0.0
2018-Apr-20 02:00N 39°13' E 009°04'0 0.0
2018-Apr-20 01:30N 39°13' E 009°04'0 0.0
2018-Apr-20 01:00N 39°13' E 009°04'0 0.0
2018-Apr-20 00:29N 39°13' E 009°04'0 0.0
2018-Apr-19 23:59N 39°13' E 009°04'0 0.0
2018-Apr-19 23:30N 39°13' E 009°04'0 0.5
2018-Apr-19 23:00N 39°13' E 009°04'2 4.0
2018-Apr-19 22:29N 39°13' E 009°07'0 0.2
2018-Apr-19 22:00N 39°13' E 009°07'0 0.0
2018-Apr-19 21:30N 39°13' E 009°07'0 0.0
2018-Apr-19 21:00N 39°13' E 009°07'0 0.0
2018-Apr-19 20:30N 39°13' E 009°07'0 0.0
2018-Apr-19 19:59N 39°13' E 009°07'0 0.0
2018-Apr-19 19:30N 39°13' E 009°07'0 0.0
2018-Apr-19 19:00N 39°13' E 009°07'0 0.0
2018-Apr-19 18:30N 39°13' E 009°07'0 0.0
2018-Apr-19 18:00N 39°13' E 009°07'0 0.0
2018-Apr-19 17:30N 39°13' E 009°07'0 0.0
2018-Apr-19 17:00N 39°13' E 009°07'0 0.0
2018-Apr-19 16:30N 39°13' E 009°07'0 0.0
2018-Apr-19 16:00N 39°13' E 009°07'0 0.0
2018-Apr-19 15:31N 39°13' E 009°07'0 0.0
2018-Apr-19 15:00N 39°13' E 009°07'0 0.0
2018-Apr-19 14:30N 39°13' E 009°07'0 0.0
2018-Apr-19 14:00N 39°13' E 009°07'0 0.0
2018-Apr-19 13:30N 39°13' E 009°07'0 0.0
2018-Apr-19 13:00N 39°13' E 009°07'0 0.0
2018-Apr-19 12:30N 39°13' E 009°07'0 0.0
2018-Apr-19 12:00N 39°13' E 009°07'2 3.7
2018-Apr-19 11:30N 39°13' E 009°04'0 1.0
2018-Apr-19 11:00N 39°13' E 009°04'2 4.2
2018-Apr-19 10:30N 39°11' E 009°06'2 3.8
2018-Apr-19 10:00N 39°13' E 009°04'1 1.8
2018-Apr-19 09:30N 39°12' E 009°05'1 3.1
2018-Apr-19 09:01N 39°13' E 009°07'0 0.0
2018-Apr-19 08:30N 39°13' E 009°07'0 0.0
2018-Apr-19 08:01N 39°13' E 009°07'0 0.0
2018-Apr-19 07:30N 39°13' E 009°07'0 0.0
2018-Apr-19 07:00N 39°13' E 009°07'1 2.5
2018-Apr-19 06:29N 39°12' E 009°06'2 4.3
2018-Apr-19 06:00N 39°13' E 009°03'0 0.0
2018-Apr-19 05:30N 39°13' E 009°03'0 0.0
2018-Apr-19 04:59N 39°13' E 009°03'0 0.0
2018-Apr-19 04:30N 39°13' E 009°03'0 0.0
2018-Apr-19 04:00N 39°13' E 009°03'0 0.0
2018-Apr-19 03:30N 39°13' E 009°03'0 0.9
2018-Apr-19 03:00N 39°13' E 009°04'2 3.5
2018-Apr-19 02:28N 39°13' E 009°06'1 3.2
2018-Apr-19 02:01N 39°13' E 009°04'1 1.7
2018-Apr-19 01:30N 39°13' E 009°03'0 0.0
2018-Apr-19 01:00N 39°13' E 009°03'0 0.0
2018-Apr-19 00:30N 39°13' E 009°03'0 0.0
2018-Apr-19 00:00N 39°13' E 009°03'0 0.0
2018-Apr-18 23:30N 39°13' E 009°03'0 0.0
2018-Apr-18 22:59N 39°13' E 009°03'0 0.0
2018-Apr-18 22:30N 39°13' E 009°03'0 0.0
2018-Apr-18 22:00N 39°13' E 009°03'1 1.4
2018-Apr-18 21:30N 39°13' E 009°04'0 0.2
2018-Apr-18 21:00N 39°13' E 009°04'0 0.7
2018-Apr-18 20:29N 39°13' E 009°05'0 0.2
2018-Apr-18 20:00N 39°13' E 009°05'0 0.0
2018-Apr-18 19:30N 39°13' E 009°05'0 0.0
2018-Apr-18 19:00N 39°13' E 009°05'0 0.0
2018-Apr-18 18:30N 39°13' E 009°05'0 0.0
2018-Apr-18 18:00N 39°13' E 009°05'0 0.0
2018-Apr-18 17:30N 39°13' E 009°05'0 0.5
2018-Apr-18 17:00N 39°13' E 009°04'2 3.8
2018-Apr-18 16:29N 39°13' E 009°07'0 0.0
2018-Apr-18 15:59N 39°13' E 009°07'0 0.0
2018-Apr-18 15:30N 39°13' E 009°07'0 0.0
2018-Apr-18 15:00N 39°13' E 009°07'0 0.0
2018-Apr-18 14:30N 39°13' E 009°07'0 0.0
2018-Apr-18 14:00N 39°13' E 009°07'0 0.0
2018-Apr-18 13:30N 39°13' E 009°07'0 0.0
2018-Apr-18 13:00N 39°13' E 009°07'0 0.0
2018-Apr-18 12:30N 39°13' E 009°07'0 0.0
2018-Apr-18 12:00N 39°13' E 009°07'0 0.0
2018-Apr-18 11:30N 39°13' E 009°07'1 2.6
2018-Apr-18 11:01N 39°12' E 009°06'2 4.0
2018-Apr-18 10:29N 39°13' E 009°04'2 3.3
2018-Apr-18 10:00N 39°12' E 009°05'1 2.6
2018-Apr-18 09:30N 39°13' E 009°07'0 0.0
2018-Apr-18 09:00N 39°13' E 009°07'0 0.0
2018-Apr-18 08:30N 39°13' E 009°07'0 0.0
2018-Apr-18 07:59N 39°13' E 009°07'0 0.0
2018-Apr-18 07:30N 39°13' E 009°07'0 0.0
2018-Apr-18 07:00N 39°13' E 009°07'1 2.6
2018-Apr-18 06:30N 39°12' E 009°05'2 4.0
2018-Apr-18 06:00N 39°13' E 009°03'0 0.0
2018-Apr-18 05:30N 39°13' E 009°03'0 0.0
2018-Apr-18 05:00N 39°13' E 009°03'0 0.0
2018-Apr-18 04:30N 39°13' E 009°03'0 0.0
2018-Apr-18 04:00N 39°13' E 009°03'0 0.0
2018-Apr-18 03:30N 39°13' E 009°03'0 0.0
2018-Apr-18 03:00N 39°13' E 009°03'0 0.0
2018-Apr-18 02:30N 39°13' E 009°03'0 0.0
2018-Apr-18 02:00N 39°13' E 009°03'0 0.0
2018-Apr-18 01:30N 39°13' E 009°03'0 0.0
2018-Apr-18 01:00N 39°13' E 009°03'0 0.0
2018-Apr-18 00:30N 39°13' E 009°03'0 0.0
2018-Apr-18 00:00N 39°13' E 009°03'0 0.0
2018-Apr-17 23:30N 39°13' E 009°03'0 0.0
2018-Apr-17 23:00N 39°13' E 009°03'0 0.0
2018-Apr-17 22:29N 39°13' E 009°03'0 0.0
2018-Apr-17 22:00N 39°13' E 009°03'0 0.0
2018-Apr-17 21:29N 39°13' E 009°03'0 0.0
2018-Apr-17 21:00N 39°13' E 009°03'0 0.0
2018-Apr-17 20:29N 39°13' E 009°03'1 2.0
2018-Apr-17 19:59N 39°13' E 009°05'0 0.0
2018-Apr-17 19:30N 39°13' E 009°05'0 0.0
2018-Apr-17 19:00N 39°13' E 009°05'0 0.0
2018-Apr-17 18:30N 39°13' E 009°05'0 0.3
2018-Apr-17 18:00N 39°12' E 009°05'2 3.4
2018-Apr-17 17:30N 39°12' E 009°07'1 1.2
2018-Apr-17 17:00N 39°13' E 009°07'0 0.0
2018-Apr-17 16:30N 39°13' E 009°07'0 0.0
2018-Apr-17 15:59N 39°13' E 009°07'0 0.0
2018-Apr-17 15:30N 39°13' E 009°07'0 0.0
2018-Apr-17 15:00N 39°13' E 009°07'0 0.0
2018-Apr-17 14:30N 39°13' E 009°07'0 0.0
2018-Apr-17 13:59N 39°13' E 009°07'0 0.0
2018-Apr-17 13:30N 39°13' E 009°07'0 0.0
2018-Apr-17 13:00N 39°13' E 009°07'0 0.0
2018-Apr-17 12:30N 39°13' E 009°07'0 0.0
2018-Apr-17 11:59N 39°13' E 009°07'0 0.0
2018-Apr-17 11:30N 39°13' E 009°07'0 0.0
2018-Apr-17 10:58N 39°13' E 009°07'0 0.0
2018-Apr-17 10:30N 39°13' E 009°07'0 0.0
2018-Apr-17 09:59N 39°13' E 009°07'0 0.0
2018-Apr-17 09:30N 39°13' E 009°07'0 0.0
2018-Apr-17 09:00N 39°13' E 009°07'0 0.0
2018-Apr-17 08:30N 39°13' E 009°07'0 0.0
2018-Apr-17 08:00N 39°13' E 009°07'0 0.0
2018-Apr-17 07:30N 39°13' E 009°07'0 0.0
2018-Apr-17 07:00N 39°13' E 009°07'2 3.8
2018-Apr-17 06:30N 39°13' E 009°04'1 1.5
2018-Apr-17 05:59N 39°13' E 009°03'0 0.0
2018-Apr-17 05:30N 39°13' E 009°03'2 4.4
2018-Apr-17 05:00N 39°12' E 009°06'0 0.1
2018-Apr-17 04:30N 39°12' E 009°06'1 1.0
2018-Apr-17 04:00N 39°12' E 009°07'0 0.0
2018-Apr-17 03:30N 39°12' E 009°07'0 0.0
2018-Apr-17 03:00N 39°12' E 009°07'0 0.0
2018-Apr-17 02:30N 39°12' E 009°07'0 0.0
2018-Apr-17 02:00N 39°12' E 009°07'0 0.0
2018-Apr-17 01:29N 39°12' E 009°07'0 0.0
2018-Apr-17 01:00N 39°12' E 009°07'0 0.0
2018-Apr-17 00:30N 39°12' E 009°07'0 0.0
2018-Apr-17 00:00N 39°12' E 009°07'0 0.0
2018-Apr-16 23:30N 39°12' E 009°07'0 0.0
2018-Apr-16 23:00N 39°12' E 009°07'0 0.0
2018-Apr-16 22:28N 39°12' E 009°07'0 0.0
2018-Apr-16 21:59N 39°12' E 009°07'0 0.0
2018-Apr-16 21:29N 39°12' E 009°07'0 0.0
2018-Apr-16 20:59N 39°12' E 009°07'0 0.0
2018-Apr-16 20:30N 39°12' E 009°07'0 0.0
2018-Apr-16 19:59N 39°12' E 009°07'0 0.0
2018-Apr-16 19:29N 39°12' E 009°07'0 0.0
2018-Apr-16 19:00N 39°12' E 009°07'0 0.0
2018-Apr-16 18:30N 39°12' E 009°07'0 0.0
2018-Apr-16 18:00N 39°12' E 009°07'0 0.0
2018-Apr-16 17:30N 39°12' E 009°07'1 2.0
2018-Apr-16 17:00N 39°12' E 009°06'2 4.7
2018-Apr-16 16:30N 39°13' E 009°04'0 0.2
2018-Apr-16 16:00N 39°13' E 009°03'0 0.0
2018-Apr-16 15:30N 39°13' E 009°03'0 0.0
2018-Apr-16 15:00N 39°13' E 009°03'0 0.0
2018-Apr-16 14:30N 39°13' E 009°03'0 0.0
2018-Apr-16 14:00N 39°13' E 009°03'0 0.0
2018-Apr-16 13:31N 39°13' E 009°03'1 1.4
2018-Apr-16 12:59N 39°13' E 009°04'0 0.3
2018-Apr-16 12:30N 39°13' E 009°04'1 1.1
2018-Apr-16 12:00N 39°13' E 009°04'0 0.7
2018-Apr-16 11:30N 39°13' E 009°03'0 0.0
2018-Apr-16 11:00N 39°13' E 009°03'0 0.0
2018-Apr-16 10:31N 39°13' E 009°03'0 0.0
2018-Apr-16 10:00N 39°13' E 009°03'0 0.0
2018-Apr-16 09:30N 39°13' E 009°03'0 0.0
2018-Apr-16 08:59N 39°13' E 009°03'0 0.0
2018-Apr-16 08:30N 39°13' E 009°03'0 0.0
2018-Apr-16 08:00N 39°13' E 009°03'0 0.0
2018-Apr-16 07:30N 39°13' E 009°03'0 0.0
2018-Apr-16 06:58N 39°13' E 009°03'0 0.0
2018-Apr-16 06:30N 39°13' E 009°03'0 0.0
2018-Apr-16 06:00N 39°13' E 009°03'0 0.0
2018-Apr-16 05:29N 39°13' E 009°03'0 0.0
2018-Apr-16 04:58N 39°13' E 009°03'0 0.0
2018-Apr-16 04:30N 39°13' E 009°03'0 0.0
2018-Apr-16 04:01N 39°13' E 009°03'0 0.0
2018-Apr-16 03:30N 39°13' E 009°03'0 0.0
2018-Apr-16 03:00N 39°13' E 009°03'0 0.0
2018-Apr-16 02:28N 39°13' E 009°03'0 0.0
2018-Apr-16 02:00N 39°13' E 009°03'0 0.0
2018-Apr-16 01:31N 39°13' E 009°03'0 0.0
2018-Apr-16 01:00N 39°13' E 009°03'0 0.0
2018-Apr-16 00:30N 39°13' E 009°03'0 0.0
2018-Apr-15 23:59N 39°13' E 009°03'0 0.0
2018-Apr-15 23:29N 39°13' E 009°03'0 0.0
2018-Apr-15 23:01N 39°13' E 009°03'0 0.0
2018-Apr-15 22:30N 39°13' E 009°03'0 0.0
2018-Apr-15 22:00N 39°13' E 009°03'0 0.0
2018-Apr-15 21:30N 39°13' E 009°03'0 0.0
2018-Apr-15 20:59N 39°13' E 009°03'0 0.0
2018-Apr-15 20:30N 39°13' E 009°03'0 0.0
2018-Apr-15 19:59N 39°13' E 009°03'0 0.0
2018-Apr-15 19:29N 39°13' E 009°03'0 0.0
2018-Apr-15 19:00N 39°13' E 009°03'0 0.0
2018-Apr-15 18:30N 39°13' E 009°03'0 0.0
2018-Apr-15 18:00N 39°13' E 009°03'0 0.0
2018-Apr-15 17:29N 39°13' E 009°03'0 0.0
2018-Apr-15 17:00N 39°13' E 009°03'0 0.0
2018-Apr-15 16:29N 39°13' E 009°03'0 0.0
2018-Apr-15 16:00N 39°13' E 009°03'0 0.0
2018-Apr-15 15:30N 39°13' E 009°03'0 0.0
2018-Apr-15 15:00N 39°13' E 009°03'0 0.0
2018-Apr-15 14:30N 39°13' E 009°03'0 0.0
2018-Apr-15 14:00N 39°13' E 009°03'0 0.0
2018-Apr-15 13:31N 39°13' E 009°03'0 0.0
2018-Apr-15 12:59N 39°13' E 009°03'1 2.0
2018-Apr-15 12:30N 39°13' E 009°04'3 6.5
2018-Apr-15 12:00N 39°09' E 009°03'1 1.4
2018-Apr-15 11:31N 39°10' E 009°04'2 3.2
2018-Apr-15 10:58N 39°11' E 009°05'2 3.1
2018-Apr-15 10:28N 39°13' E 009°05'0 0.1
2018-Apr-15 10:00N 39°13' E 009°05'0 0.0
2018-Apr-15 09:30N 39°13' E 009°05'0 0.0
2018-Apr-15 09:00N 39°13' E 009°05'0 0.0
2018-Apr-15 08:30N 39°13' E 009°05'0 0.1
2018-Apr-15 08:00N 39°13' E 009°05'0 0.1
2018-Apr-15 07:28N 39°13' E 009°05'1 2.1
2018-Apr-15 07:00N 39°13' E 009°03'0 0.0
2018-Apr-15 06:30N 39°13' E 009°03'0 0.0
2018-Apr-15 06:00N 39°13' E 009°03'0 0.0
2018-Apr-15 05:28N 39°13' E 009°03'0 0.0
2018-Apr-15 05:00N 39°13' E 009°03'0 0.0
2018-Apr-15 04:29N 39°13' E 009°03'0 0.0
2018-Apr-15 04:00N 39°13' E 009°03'0 0.0
2018-Apr-15 03:30N 39°13' E 009°03'0 0.0
2018-Apr-15 03:00N 39°13' E 009°03'0 0.0
2018-Apr-15 02:30N 39°13' E 009°03'0 0.0
2018-Apr-15 02:00N 39°13' E 009°03'0 0.0
2018-Apr-15 01:30N 39°13' E 009°03'0 0.0
2018-Apr-15 01:00N 39°13' E 009°03'0 0.0
2018-Apr-15 00:30N 39°13' E 009°03'0 0.0
2018-Apr-15 00:00N 39°13' E 009°03'0 0.0
2018-Apr-14 23:30N 39°13' E 009°03'0 0.0
2018-Apr-14 23:00N 39°13' E 009°03'0 0.0
2018-Apr-14 22:30N 39°13' E 009°03'0 0.0
2018-Apr-14 22:01N 39°13' E 009°03'0 0.0
2018-Apr-14 21:29N 39°13' E 009°03'0 0.0
2018-Apr-14 21:00N 39°13' E 009°03'0 0.0
2018-Apr-14 20:29N 39°13' E 009°03'0 0.0
2018-Apr-14 20:00N 39°13' E 009°03'0 0.0
2018-Apr-14 19:30N 39°13' E 009°03'0 0.0
2018-Apr-14 19:00N 39°13' E 009°03'0 0.0
2018-Apr-14 18:30N 39°13' E 009°03'0 0.0
2018-Apr-14 18:00N 39°13' E 009°03'0 0.0
2018-Apr-14 17:30N 39°13' E 009°03'0 0.0
2018-Apr-14 16:58N 39°13' E 009°03'0 0.0
2018-Apr-14 16:30N 39°13' E 009°03'0 0.0
2018-Apr-14 16:01N 39°13' E 009°03'0 0.0
2018-Apr-14 15:30N 39°13' E 009°03'0 0.0
2018-Apr-14 15:00N 39°13' E 009°03'0 0.0
2018-Apr-14 14:30N 39°13' E 009°03'0 0.0
2018-Apr-14 14:00N 39°13' E 009°03'0 0.0
2018-Apr-14 13:30N 39°13' E 009°03'2 4.9
2018-Apr-14 13:00N 39°12' E 009°06'1 2.1
2018-Apr-14 12:30N 39°13' E 009°06'1 1.0
2018-Apr-14 12:00N 39°12' E 009°07'0 0.6
2018-Apr-14 11:30N 39°13' E 009°07'0 0.0
2018-Apr-14 11:00N 39°13' E 009°07'0 0.0
2018-Apr-14 10:30N 39°13' E 009°07'0 0.0
2018-Apr-14 10:00N 39°13' E 009°07'0 0.7
2018-Apr-14 09:30N 39°13' E 009°06'1 2.4
2018-Apr-14 09:00N 39°12' E 009°05'1 2.7
2018-Apr-14 08:30N 39°13' E 009°03'0 0.0
2018-Apr-14 07:59N 39°13' E 009°03'0 0.2
2018-Apr-14 07:30N 39°13' E 009°04'0 0.2
2018-Apr-14 07:00N 39°13' E 009°03'0 0.0
2018-Apr-14 06:30N 39°13' E 009°03'0 0.0
2018-Apr-14 06:00N 39°13' E 009°03'1 1.8
2018-Apr-14 05:30N 39°13' E 009°04'1 3.0
2018-Apr-14 05:00N 39°13' E 009°06'1 2.2
2018-Apr-14 04:30N 39°12' E 009°06'1 2.4
2018-Apr-14 04:00N 39°12' E 009°05'2 3.0
2018-Apr-14 03:30N 39°13' E 009°03'0 0.0
2018-Apr-14 03:00N 39°13' E 009°03'0 0.0
2018-Apr-14 02:29N 39°13' E 009°03'0 0.0
2018-Apr-14 02:00N 39°13' E 009°03'0 0.0
2018-Apr-14 01:30N 39°13' E 009°03'0 0.0
2018-Apr-14 01:01N 39°13' E 009°03'0 0.0
2018-Apr-14 00:31N 39°13' E 009°03'0 0.0
2018-Apr-13 23:59N 39°13' E 009°03'0 0.0
2018-Apr-13 23:30N 39°13' E 009°03'0 0.0
2018-Apr-13 22:59N 39°13' E 009°03'0 0.0
2018-Apr-13 22:30N 39°13' E 009°03'0 0.0
2018-Apr-13 22:00N 39°13' E 009°03'0 0.0
2018-Apr-13 21:30N 39°13' E 009°03'0 0.0
2018-Apr-13 21:00N 39°13' E 009°03'0 0.0
2018-Apr-13 20:29N 39°13' E 009°03'0 0.0
2018-Apr-13 20:00N 39°13' E 009°03'0 0.0
2018-Apr-13 19:30N 39°13' E 009°03'0 0.0
2018-Apr-13 18:59N 39°13' E 009°03'0 0.0
2018-Apr-13 18:30N 39°13' E 009°03'0 0.0
2018-Apr-13 18:00N 39°13' E 009°03'0 0.0
2018-Apr-13 17:30N 39°13' E 009°03'0 0.0
2018-Apr-13 17:00N 39°13' E 009°03'0 0.0
2018-Apr-13 16:30N 39°13' E 009°03'0 0.0
2018-Apr-13 15:59N 39°13' E 009°03'0 0.0
2018-Apr-13 15:30N 39°13' E 009°03'0 0.0
2018-Apr-13 14:59N 39°13' E 009°03'0 0.0
2018-Apr-13 14:30N 39°13' E 009°03'0 0.0
2018-Apr-13 13:59N 39°13' E 009°03'0 0.0
2018-Apr-13 13:30N 39°13' E 009°03'2 3.8
2018-Apr-13 13:00N 39°12' E 009°05'3 6.1
2018-Apr-13 12:30N 39°09' E 009°03'3 6.1
2018-Apr-13 12:00N 39°11' E 009°06'1 2.8
2018-Apr-13 11:30N 39°13' E 009°07'0 0.0
2018-Apr-13 11:00N 39°13' E 009°07'0 0.0
2018-Apr-13 10:29N 39°13' E 009°07'0 0.0
2018-Apr-13 09:59N 39°13' E 009°07'0 0.0
2018-Apr-13 09:30N 39°13' E 009°07'0 0.0
2018-Apr-13 08:59N 39°13' E 009°07'0 0.0
2018-Apr-13 08:30N 39°13' E 009°07'0 0.0
2018-Apr-13 08:00N 39°13' E 009°07'2 3.3
2018-Apr-13 07:30N 39°12' E 009°05'1 2.3
2018-Apr-13 07:00N 39°13' E 009°03'0 0.0
2018-Apr-13 06:30N 39°13' E 009°03'0 0.0
2018-Apr-13 06:00N 39°13' E 009°03'0 0.0
2018-Apr-13 05:30N 39°13' E 009°03'1 2.1
2018-Apr-13 05:00N 39°13' E 009°05'0 0.1
2018-Apr-13 04:30N 39°13' E 009°05'0 0.0
2018-Apr-13 04:00N 39°13' E 009°05'0 0.0
2018-Apr-13 03:29N 39°13' E 009°05'0 0.0
2018-Apr-13 03:00N 39°13' E 009°05'0 0.0
2018-Apr-13 02:30N 39°13' E 009°05'0 0.0
2018-Apr-13 02:00N 39°13' E 009°05'0 0.0
2018-Apr-13 01:29N 39°13' E 009°05'0 0.1
2018-Apr-13 01:00N 39°13' E 009°05'0 0.4
2018-Apr-13 00:30N 39°13' E 009°04'1 1.7
2018-Apr-13 00:00N 39°13' E 009°03'0 0.0
2018-Apr-12 23:30N 39°13' E 009°03'0 0.0
2018-Apr-12 23:00N 39°13' E 009°03'0 0.0
2018-Apr-12 22:30N 39°13' E 009°03'0 0.0
2018-Apr-12 21:58N 39°13' E 009°03'0 0.0
2018-Apr-12 21:30N 39°13' E 009°03'0 0.0
2018-Apr-12 21:00N 39°13' E 009°03'0 0.0
2018-Apr-12 20:30N 39°13' E 009°03'0 0.0
2018-Apr-12 20:00N 39°13' E 009°03'0 0.0
2018-Apr-12 19:30N 39°13' E 009°03'0 0.0
2018-Apr-12 19:00N 39°13' E 009°03'0 0.0
2018-Apr-12 18:30N 39°13' E 009°03'0 0.0
2018-Apr-12 18:00N 39°13' E 009°03'0 0.0
2018-Apr-12 17:29N 39°13' E 009°03'1 1.7
2018-Apr-12 17:00N 39°13' E 009°04'1 1.5
2018-Apr-12 16:30N 39°13' E 009°03'0 0.0
2018-Apr-12 16:00N 39°13' E 009°03'0 0.0
2018-Apr-12 15:30N 39°13' E 009°03'0 0.0
2018-Apr-12 15:00N 39°13' E 009°03'0 0.0
2018-Apr-12 14:30N 39°13' E 009°03'0 0.0
2018-Apr-12 14:00N 39°13' E 009°03'0 0.0
2018-Apr-12 13:30N 39°13' E 009°03'0 0.0
2018-Apr-12 12:59N 39°13' E 009°03'0 0.0
2018-Apr-12 12:30N 39°13' E 009°03'0 0.0
2018-Apr-12 12:00N 39°13' E 009°03'2 4.9
2018-Apr-12 11:29N 39°12' E 009°06'0 0.4
2018-Apr-12 11:00N 39°12' E 009°07'1 1.9
2018-Apr-12 10:29N 39°12' E 009°05'1 1.6
2018-Apr-12 10:00N 39°13' E 009°05'0 0.0
2018-Apr-12 09:30N 39°13' E 009°05'0 0.0
2018-Apr-12 08:59N 39°13' E 009°05'0 0.0
2018-Apr-12 08:30N 39°13' E 009°05'1 1.1
2018-Apr-12 08:00N 39°13' E 009°04'0 0.8
2018-Apr-12 07:30N 39°13' E 009°04'0 0.0
2018-Apr-12 06:59N 39°13' E 009°04'1 1.3
2018-Apr-12 06:29N 39°13' E 009°04'1 1.4
2018-Apr-12 05:59N 39°13' E 009°04'0 0.0
2018-Apr-12 05:30N 39°13' E 009°04'0 0.0
2018-Apr-12 05:00N 39°13' E 009°04'0 0.0
2018-Apr-12 04:30N 39°13' E 009°04'0 0.0
2018-Apr-12 03:59N 39°13' E 009°04'0 0.0
2018-Apr-12 03:30N 39°13' E 009°04'0 0.0
2018-Apr-12 02:59N 39°13' E 009°04'0 0.0
2018-Apr-12 02:30N 39°13' E 009°04'0 0.0
2018-Apr-12 02:00N 39°13' E 009°04'0 0.0
2018-Apr-12 01:30N 39°13' E 009°04'0 0.0
2018-Apr-12 01:00N 39°13' E 009°04'0 0.0
2018-Apr-12 00:29N 39°13' E 009°04'0 0.0
2018-Apr-12 00:00N 39°13' E 009°04'0 0.0
2018-Apr-11 23:30N 39°13' E 009°04'0 0.0
2018-Apr-11 23:00N 39°13' E 009°04'0 0.0
2018-Apr-11 22:30N 39°13' E 009°04'0 0.0
2018-Apr-11 22:00N 39°13' E 009°04'0 0.0
2018-Apr-11 21:30N 39°13' E 009°04'0 0.0
2018-Apr-11 20:59N 39°13' E 009°04'0 0.0
2018-Apr-11 20:30N 39°13' E 009°04'0 0.0
2018-Apr-11 20:00N 39°13' E 009°04'0 0.0
2018-Apr-11 19:29N 39°13' E 009°04'1 1.1
2018-Apr-11 19:00N 39°13' E 009°04'0 0.3
2018-Apr-11 18:30N 39°13' E 009°04'2 4.2
2018-Apr-11 18:00N 39°12' E 009°06'2 3.0
2018-Apr-11 17:30N 39°13' E 009°05'0 0.0
2018-Apr-11 17:00N 39°13' E 009°05'0 0.0
2018-Apr-11 16:30N 39°13' E 009°05'0 0.0
2018-Apr-11 16:00N 39°13' E 009°05'1 1.9
2018-Apr-11 15:27N 39°12' E 009°05'1 2.3
2018-Apr-11 15:00N 39°13' E 009°05'0 0.0
2018-Apr-11 14:30N 39°13' E 009°05'0 0.0
2018-Apr-11 14:00N 39°13' E 009°05'0 0.0
2018-Apr-11 13:30N 39°13' E 009°05'0 0.0
2018-Apr-11 12:57N 39°13' E 009°05'0 0.0
2018-Apr-11 12:30N 39°13' E 009°05'0 0.0
2018-Apr-11 12:00N 39°13' E 009°05'0 0.8
2018-Apr-11 11:29N 39°13' E 009°04'0 0.8
2018-Apr-11 11:00N 39°13' E 009°05'0 0.0
2018-Apr-11 10:30N 39°13' E 009°05'1 1.0
2018-Apr-11 10:00N 39°13' E 009°04'0 0.8
2018-Apr-11 09:30N 39°13' E 009°04'1 2.4
2018-Apr-11 09:00N 39°12' E 009°05'0 0.8
2018-Apr-11 08:30N 39°13' E 009°05'0 0.0
2018-Apr-11 08:00N 39°13' E 009°05'0 0.0
2018-Apr-11 07:30N 39°13' E 009°05'0 0.2
2018-Apr-11 07:00N 39°13' E 009°04'1 1.6
2018-Apr-11 06:30N 39°13' E 009°04'1 1.1
2018-Apr-11 06:00N 39°13' E 009°04'1 1.4
2018-Apr-11 05:30N 39°12' E 009°05'0 0.7
2018-Apr-11 04:58N 39°13' E 009°05'0 0.0
2018-Apr-11 04:29N 39°13' E 009°05'0 0.0
2018-Apr-11 04:00N 39°13' E 009°05'0 0.0
2018-Apr-11 03:30N 39°13' E 009°05'0 0.0
2018-Apr-11 03:00N 39°13' E 009°05'0 0.0
2018-Apr-11 02:30N 39°13' E 009°05'0 0.0
2018-Apr-11 01:59N 39°13' E 009°05'0 0.0
2018-Apr-11 01:30N 39°13' E 009°05'0 0.0
2018-Apr-11 01:00N 39°13' E 009°05'0 0.0
2018-Apr-11 00:29N 39°13' E 009°05'0 0.0
2018-Apr-11 00:00N 39°13' E 009°05'0 0.0
2018-Apr-10 23:30N 39°13' E 009°05'0 0.0
2018-Apr-10 23:00N 39°13' E 009°05'0 0.0
2018-Apr-10 22:30N 39°13' E 009°05'0 0.0
2018-Apr-10 21:59N 39°13' E 009°05'0 0.2
2018-Apr-10 21:30N 39°13' E 009°04'1 2.3
2018-Apr-10 21:00N 39°12' E 009°05'1 2.1
2018-Apr-10 20:30N 39°13' E 009°05'0 0.0
2018-Apr-10 20:00N 39°13' E 009°05'0 0.0
2018-Apr-10 19:30N 39°13' E 009°05'0 0.0
2018-Apr-10 18:58N 39°13' E 009°05'0 0.0
2018-Apr-10 18:29N 39°13' E 009°05'0 0.0
2018-Apr-10 18:00N 39°13' E 009°05'0 0.0
2018-Apr-10 17:30N 39°13' E 009°05'0 0.8
2018-Apr-10 17:00N 39°13' E 009°04'1 1.1
2018-Apr-10 16:30N 39°13' E 009°03'0 0.0
2018-Apr-10 16:00N 39°13' E 009°03'0 0.0
2018-Apr-10 15:29N 39°13' E 009°03'0 0.0
2018-Apr-10 15:00N 39°13' E 009°03'0 0.0
2018-Apr-10 14:30N 39°13' E 009°03'0 0.0
2018-Apr-10 14:00N 39°13' E 009°03'0 0.0
2018-Apr-10 13:30N 39°13' E 009°03'0 0.0
2018-Apr-10 13:00N 39°13' E 009°03'0 0.0
2018-Apr-10 12:30N 39°13' E 009°03'0 0.0
2018-Apr-10 12:00N 39°13' E 009°03'0 0.0
2018-Apr-10 11:30N 39°13' E 009°03'0 0.0
2018-Apr-10 10:59N 39°13' E 009°03'0 0.0
2018-Apr-10 10:30N 39°13' E 009°03'0 0.0
2018-Apr-10 09:59N 39°13' E 009°03'0 0.0
2018-Apr-10 09:30N 39°13' E 009°03'0 0.0
2018-Apr-10 09:00N 39°13' E 009°03'1 1.0
2018-Apr-10 08:30N 39°13' E 009°04'3 6.4
2018-Apr-10 08:00N 39°10' E 009°05'4 8.9
2018-Apr-10 07:30N 39°06' E 009°02'510.1
2018-Apr-10 07:00N 39°10' E 009°05'3 5.7
2018-Apr-10 06:30N 39°13' E 009°03'1 1.1
2018-Apr-10 06:00N 39°13' E 009°04'1 1.1
2018-Apr-10 05:30N 39°12' E 009°05'1 2.1
2018-Apr-10 05:00N 39°13' E 009°03'  
Track history (hours):
 
Tides and Currents Weather Stations Pressure Air Temp Water Temp Dewpoint Dewpoint Depression Visibility Wind Speed Wind Dir Waves Ship Positions

Andrea Onorato

Last reported at 2018-Apr-20 05:00 UTC. Time now 2018-Apr-20 05:10 UTC.
Position N 39°13' E 009°04'.

Length 32 m; draft 4.7 m.

Type: Tug. MMSI: 247090500.

Date/timePositionNaut miles runAvg speedWind from/ knotsBaromVisibWave heightAir tempDewpointWater temp
2018-Apr-20 05:00N 39°13' E 009°04'1 2.0
2018-Apr-20 04:30N 39°12' E 009°05'0 0.9
2018-Apr-20 04:00N 39°13' E 009°04'0 0.0
2018-Apr-20 03:30N 39°13' E 009°04'0 0.0
2018-Apr-20 02:59N 39°13' E 009°04'0 0.0
2018-Apr-20 02:30N 39°13' E 009°04'0 0.0
2018-Apr-20 02:00N 39°13' E 009°04'0 0.0
2018-Apr-20 01:30N 39°13' E 009°04'0 0.0
2018-Apr-20 01:00N 39°13' E 009°04'0 0.0
2018-Apr-20 00:29N 39°13' E 009°04'0 0.0
2018-Apr-19 23:59N 39°13' E 009°04'0 0.0
2018-Apr-19 23:30N 39°13' E 009°04'0 0.5
2018-Apr-19 23:00N 39°13' E 009°04'2 4.0
2018-Apr-19 22:29N 39°13' E 009°07'0 0.2
2018-Apr-19 22:00N 39°13' E 009°07'0 0.0
2018-Apr-19 21:30N 39°13' E 009°07'0 0.0
2018-Apr-19 21:00N 39°13' E 009°07'0 0.0
2018-Apr-19 20:30N 39°13' E 009°07'0 0.0
2018-Apr-19 19:59N 39°13' E 009°07'0 0.0
2018-Apr-19 19:30N 39°13' E 009°07'0 0.0
2018-Apr-19 19:00N 39°13' E 009°07'0 0.0
2018-Apr-19 18:30N 39°13' E 009°07'0 0.0
2018-Apr-19 18:00N 39°13' E 009°07'0 0.0
2018-Apr-19 17:30N 39°13' E 009°07'0 0.0
2018-Apr-19 17:00N 39°13' E 009°07'0 0.0
2018-Apr-19 16:30N 39°13' E 009°07'0 0.0
2018-Apr-19 16:00N 39°13' E 009°07'0 0.0
2018-Apr-19 15:31N 39°13' E 009°07'0 0.0
2018-Apr-19 15:00N 39°13' E 009°07'0 0.0
2018-Apr-19 14:30N 39°13' E 009°07'0 0.0
2018-Apr-19 14:00N 39°13' E 009°07'0 0.0
2018-Apr-19 13:30N 39°13' E 009°07'0 0.0
2018-Apr-19 13:00N 39°13' E 009°07'0 0.0
2018-Apr-19 12:30N 39°13' E 009°07'0 0.0
2018-Apr-19 12:00N 39°13' E 009°07'2 3.7
2018-Apr-19 11:30N 39°13' E 009°04'0 1.0
2018-Apr-19 11:00N 39°13' E 009°04'2 4.2
2018-Apr-19 10:30N 39°11' E 009°06'2 3.8
2018-Apr-19 10:00N 39°13' E 009°04'1 1.8
2018-Apr-19 09:30N 39°12' E 009°05'1 3.1
2018-Apr-19 09:01N 39°13' E 009°07'0 0.0
2018-Apr-19 08:30N 39°13' E 009°07'0 0.0
2018-Apr-19 08:01N 39°13' E 009°07'0 0.0
2018-Apr-19 07:30N 39°13' E 009°07'0 0.0
2018-Apr-19 07:00N 39°13' E 009°07'1 2.5
2018-Apr-19 06:29N 39°12' E 009°06'2 4.3
2018-Apr-19 06:00N 39°13' E 009°03'0 0.0
2018-Apr-19 05:30N 39°13' E 009°03'0 0.0
2018-Apr-19 04:59N 39°13' E 009°03'0 0.0
2018-Apr-19 04:30N 39°13' E 009°03'0 0.0
2018-Apr-19 04:00N 39°13' E 009°03'0 0.0
2018-Apr-19 03:30N 39°13' E 009°03'0 0.9
2018-Apr-19 03:00N 39°13' E 009°04'2 3.5
2018-Apr-19 02:28N 39°13' E 009°06'1 3.2
2018-Apr-19 02:01N 39°13' E 009°04'1 1.7
2018-Apr-19 01:30N 39°13' E 009°03'0 0.0
2018-Apr-19 01:00N 39°13' E 009°03'0 0.0
2018-Apr-19 00:30N 39°13' E 009°03'0 0.0
2018-Apr-19 00:00N 39°13' E 009°03'0 0.0
2018-Apr-18 23:30N 39°13' E 009°03'0 0.0
2018-Apr-18 22:59N 39°13' E 009°03'0 0.0
2018-Apr-18 22:30N 39°13' E 009°03'0 0.0
2018-Apr-18 22:00N 39°13' E 009°03'1 1.4
2018-Apr-18 21:30N 39°13' E 009°04'0 0.2
2018-Apr-18 21:00N 39°13' E 009°04'0 0.7
2018-Apr-18 20:29N 39°13' E 009°05'0 0.2
2018-Apr-18 20:00N 39°13' E 009°05'0 0.0
2018-Apr-18 19:30N 39°13' E 009°05'0 0.0
2018-Apr-18 19:00N 39°13' E 009°05'0 0.0
2018-Apr-18 18:30N 39°13' E 009°05'0 0.0
2018-Apr-18 18:00N 39°13' E 009°05'0 0.0
2018-Apr-18 17:30N 39°13' E 009°05'0 0.5
2018-Apr-18 17:00N 39°13' E 009°04'2 3.8
2018-Apr-18 16:29N 39°13' E 009°07'0 0.0
2018-Apr-18 15:59N 39°13' E 009°07'0 0.0
2018-Apr-18 15:30N 39°13' E 009°07'0 0.0
2018-Apr-18 15:00N 39°13' E 009°07'0 0.0
2018-Apr-18 14:30N 39°13' E 009°07'0 0.0
2018-Apr-18 14:00N 39°13' E 009°07'0 0.0
2018-Apr-18 13:30N 39°13' E 009°07'0 0.0
2018-Apr-18 13:00N 39°13' E 009°07'0 0.0
2018-Apr-18 12:30N 39°13' E 009°07'0 0.0
2018-Apr-18 12:00N 39°13' E 009°07'0 0.0
2018-Apr-18 11:30N 39°13' E 009°07'1 2.6
2018-Apr-18 11:01N 39°12' E 009°06'2 4.0
2018-Apr-18 10:29N 39°13' E 009°04'2 3.3
2018-Apr-18 10:00N 39°12' E 009°05'1 2.6
2018-Apr-18 09:30N 39°13' E 009°07'0 0.0
2018-Apr-18 09:00N 39°13' E 009°07'0 0.0
2018-Apr-18 08:30N 39°13' E 009°07'0 0.0
2018-Apr-18 07:59N 39°13' E 009°07'0 0.0
2018-Apr-18 07:30N 39°13' E 009°07'0 0.0
2018-Apr-18 07:00N 39°13' E 009°07'1 2.6
2018-Apr-18 06:30N 39°12' E 009°05'2 4.0
2018-Apr-18 06:00N 39°13' E 009°03'0 0.0
2018-Apr-18 05:30N 39°13' E 009°03'0 0.0
2018-Apr-18 05:00N 39°13' E 009°03'0 0.0
2018-Apr-18 04:30N 39°13' E 009°03'0 0.0
2018-Apr-18 04:00N 39°13' E 009°03'0 0.0
2018-Apr-18 03:30N 39°13' E 009°03'0 0.0
2018-Apr-18 03:00N 39°13' E 009°03'0 0.0
2018-Apr-18 02:30N 39°13' E 009°03'0 0.0
2018-Apr-18 02:00N 39°13' E 009°03'0 0.0
2018-Apr-18 01:30N 39°13' E 009°03'0 0.0
2018-Apr-18 01:00N 39°13' E 009°03'0 0.0
2018-Apr-18 00:30N 39°13' E 009°03'0 0.0
2018-Apr-18 00:00N 39°13' E 009°03'0 0.0
2018-Apr-17 23:30N 39°13' E 009°03'0 0.0
2018-Apr-17 23:00N 39°13' E 009°03'0 0.0
2018-Apr-17 22:29N 39°13' E 009°03'0 0.0
2018-Apr-17 22:00N 39°13' E 009°03'0 0.0
2018-Apr-17 21:29N 39°13' E 009°03'0 0.0
2018-Apr-17 21:00N 39°13' E 009°03'0 0.0
2018-Apr-17 20:29N 39°13' E 009°03'1 2.0
2018-Apr-17 19:59N 39°13' E 009°05'0 0.0
2018-Apr-17 19:30N 39°13' E 009°05'0 0.0
2018-Apr-17 19:00N 39°13' E 009°05'0 0.0
2018-Apr-17 18:30N 39°13' E 009°05'0 0.3
2018-Apr-17 18:00N 39°12' E 009°05'2 3.4
2018-Apr-17 17:30N 39°12' E 009°07'1 1.2
2018-Apr-17 17:00N 39°13' E 009°07'0 0.0
2018-Apr-17 16:30N 39°13' E 009°07'0 0.0
2018-Apr-17 15:59N 39°13' E 009°07'0 0.0
2018-Apr-17 15:30N 39°13' E 009°07'0 0.0
2018-Apr-17 15:00N 39°13' E 009°07'0 0.0
2018-Apr-17 14:30N 39°13' E 009°07'0 0.0
2018-Apr-17 13:59N 39°13' E 009°07'0 0.0
2018-Apr-17 13:30N 39°13' E 009°07'0 0.0
2018-Apr-17 13:00N 39°13' E 009°07'0 0.0
2018-Apr-17 12:30N 39°13' E 009°07'0 0.0
2018-Apr-17 11:59N 39°13' E 009°07'0 0.0
2018-Apr-17 11:30N 39°13' E 009°07'0 0.0
2018-Apr-17 10:58N 39°13' E 009°07'0 0.0
2018-Apr-17 10:30N 39°13' E 009°07'0 0.0
2018-Apr-17 09:59N 39°13' E 009°07'0 0.0
2018-Apr-17 09:30N 39°13' E 009°07'0 0.0
2018-Apr-17 09:00N 39°13' E 009°07'0 0.0
2018-Apr-17 08:30N 39°13' E 009°07'0 0.0
2018-Apr-17 08:00N 39°13' E 009°07'0 0.0
2018-Apr-17 07:30N 39°13' E 009°07'0 0.0
2018-Apr-17 07:00N 39°13' E 009°07'2 3.8
2018-Apr-17 06:30N 39°13' E 009°04'1 1.5
2018-Apr-17 05:59N 39°13' E 009°03'0 0.0
2018-Apr-17 05:30N 39°13' E 009°03'2 4.4
2018-Apr-17 05:00N 39°12' E 009°06'0 0.1
2018-Apr-17 04:30N 39°12' E 009°06'1 1.0
2018-Apr-17 04:00N 39°12' E 009°07'0 0.0
2018-Apr-17 03:30N 39°12' E 009°07'0 0.0
2018-Apr-17 03:00N 39°12' E 009°07'0 0.0
2018-Apr-17 02:30N 39°12' E 009°07'0 0.0
2018-Apr-17 02:00N 39°12' E 009°07'0 0.0
2018-Apr-17 01:29N 39°12' E 009°07'0 0.0
2018-Apr-17 01:00N 39°12' E 009°07'0 0.0
2018-Apr-17 00:30N 39°12' E 009°07'0 0.0
2018-Apr-17 00:00N 39°12' E 009°07'0 0.0
2018-Apr-16 23:30N 39°12' E 009°07'0 0.0
2018-Apr-16 23:00N 39°12' E 009°07'0 0.0
2018-Apr-16 22:28N 39°12' E 009°07'0 0.0
2018-Apr-16 21:59N 39°12' E 009°07'0 0.0
2018-Apr-16 21:29N 39°12' E 009°07'0 0.0
2018-Apr-16 20:59N 39°12' E 009°07'0 0.0
2018-Apr-16 20:30N 39°12' E 009°07'0 0.0
2018-Apr-16 19:59N 39°12' E 009°07'0 0.0
2018-Apr-16 19:29N 39°12' E 009°07'0 0.0
2018-Apr-16 19:00N 39°12' E 009°07'0 0.0
2018-Apr-16 18:30N 39°12' E 009°07'0 0.0
2018-Apr-16 18:00N 39°12' E 009°07'0 0.0
2018-Apr-16 17:30N 39°12' E 009°07'1 2.0
2018-Apr-16 17:00N 39°12' E 009°06'2 4.7
2018-Apr-16 16:30N 39°13' E 009°04'0 0.2
2018-Apr-16 16:00N 39°13' E 009°03'0 0.0
2018-Apr-16 15:30N 39°13' E 009°03'0 0.0
2018-Apr-16 15:00N 39°13' E 009°03'0 0.0
2018-Apr-16 14:30N 39°13' E 009°03'0 0.0
2018-Apr-16 14:00N 39°13' E 009°03'0 0.0
2018-Apr-16 13:31N 39°13' E 009°03'1 1.4
2018-Apr-16 12:59N 39°13' E 009°04'0 0.3
2018-Apr-16 12:30N 39°13' E 009°04'1 1.1
2018-Apr-16 12:00N 39°13' E 009°04'0 0.7
2018-Apr-16 11:30N 39°13' E 009°03'0 0.0
2018-Apr-16 11:00N 39°13' E 009°03'0 0.0
2018-Apr-16 10:31N 39°13' E 009°03'0 0.0
2018-Apr-16 10:00N 39°13' E 009°03'0 0.0
2018-Apr-16 09:30N 39°13' E 009°03'0 0.0
2018-Apr-16 08:59N 39°13' E 009°03'0 0.0
2018-Apr-16 08:30N 39°13' E 009°03'0 0.0
2018-Apr-16 08:00N 39°13' E 009°03'0 0.0
2018-Apr-16 07:30N 39°13' E 009°03'0 0.0
2018-Apr-16 06:58N 39°13' E 009°03'0 0.0
2018-Apr-16 06:30N 39°13' E 009°03'0 0.0
2018-Apr-16 06:00N 39°13' E 009°03'0 0.0
2018-Apr-16 05:29N 39°13' E 009°03'0 0.0
2018-Apr-16 04:58N 39°13' E 009°03'0 0.0
2018-Apr-16 04:30N 39°13' E 009°03'0 0.0
2018-Apr-16 04:01N 39°13' E 009°03'0 0.0
2018-Apr-16 03:30N 39°13' E 009°03'0 0.0
2018-Apr-16 03:00N 39°13' E 009°03'0 0.0
2018-Apr-16 02:28N 39°13' E 009°03'0 0.0
2018-Apr-16 02:00N 39°13' E 009°03'0 0.0
2018-Apr-16 01:31N 39°13' E 009°03'0 0.0
2018-Apr-16 01:00N 39°13' E 009°03'0 0.0
2018-Apr-16 00:30N 39°13' E 009°03'0 0.0
2018-Apr-15 23:59N 39°13' E 009°03'0 0.0
2018-Apr-15 23:29N 39°13' E 009°03'0 0.0
2018-Apr-15 23:01N 39°13' E 009°03'0 0.0
2018-Apr-15 22:30N 39°13' E 009°03'0 0.0
2018-Apr-15 22:00N 39°13' E 009°03'0 0.0
2018-Apr-15 21:30N 39°13' E 009°03'0 0.0
2018-Apr-15 20:59N 39°13' E 009°03'0 0.0
2018-Apr-15 20:30N 39°13' E 009°03'0 0.0
2018-Apr-15 19:59N 39°13' E 009°03'0 0.0
2018-Apr-15 19:29N 39°13' E 009°03'0 0.0
2018-Apr-15 19:00N 39°13' E 009°03'0 0.0
2018-Apr-15 18:30N 39°13' E 009°03'0 0.0
2018-Apr-15 18:00N 39°13' E 009°03'0 0.0
2018-Apr-15 17:29N 39°13' E 009°03'0 0.0
2018-Apr-15 17:00N 39°13' E 009°03'0 0.0
2018-Apr-15 16:29N 39°13' E 009°03'0 0.0
2018-Apr-15 16:00N 39°13' E 009°03'0 0.0
2018-Apr-15 15:30N 39°13' E 009°03'0 0.0
2018-Apr-15 15:00N 39°13' E 009°03'0 0.0
2018-Apr-15 14:30N 39°13' E 009°03'0 0.0
2018-Apr-15 14:00N 39°13' E 009°03'0 0.0
2018-Apr-15 13:31N 39°13' E 009°03'0 0.0
2018-Apr-15 12:59N 39°13' E 009°03'1 2.0
2018-Apr-15 12:30N 39°13' E 009°04'3 6.5
2018-Apr-15 12:00N 39°09' E 009°03'1 1.4
2018-Apr-15 11:31N 39°10' E 009°04'2 3.2
2018-Apr-15 10:58N 39°11' E 009°05'2 3.1
2018-Apr-15 10:28N 39°13' E 009°05'0 0.1
2018-Apr-15 10:00N 39°13' E 009°05'0 0.0
2018-Apr-15 09:30N 39°13' E 009°05'0 0.0
2018-Apr-15 09:00N 39°13' E 009°05'0 0.0
2018-Apr-15 08:30N 39°13' E 009°05'0 0.1
2018-Apr-15 08:00N 39°13' E 009°05'0 0.1
2018-Apr-15 07:28N 39°13' E 009°05'1 2.1
2018-Apr-15 07:00N 39°13' E 009°03'0 0.0
2018-Apr-15 06:30N 39°13' E 009°03'0 0.0
2018-Apr-15 06:00N 39°13' E 009°03'0 0.0
2018-Apr-15 05:28N 39°13' E 009°03'0 0.0
2018-Apr-15 05:00N 39°13' E 009°03'0 0.0
2018-Apr-15 04:29N 39°13' E 009°03'0 0.0
2018-Apr-15 04:00N 39°13' E 009°03'0 0.0
2018-Apr-15 03:30N 39°13' E 009°03'0 0.0
2018-Apr-15 03:00N 39°13' E 009°03'0 0.0
2018-Apr-15 02:30N 39°13' E 009°03'0 0.0
2018-Apr-15 02:00N 39°13' E 009°03'0 0.0
2018-Apr-15 01:30N 39°13' E 009°03'0 0.0
2018-Apr-15 01:00N 39°13' E 009°03'0 0.0
2018-Apr-15 00:30N 39°13' E 009°03'0 0.0
2018-Apr-15 00:00N 39°13' E 009°03'0 0.0
2018-Apr-14 23:30N 39°13' E 009°03'0 0.0
2018-Apr-14 23:00N 39°13' E 009°03'0 0.0
2018-Apr-14 22:30N 39°13' E 009°03'0 0.0
2018-Apr-14 22:01N 39°13' E 009°03'0 0.0
2018-Apr-14 21:29N 39°13' E 009°03'0 0.0
2018-Apr-14 21:00N 39°13' E 009°03'0 0.0
2018-Apr-14 20:29N 39°13' E 009°03'0 0.0
2018-Apr-14 20:00N 39°13' E 009°03'0 0.0
2018-Apr-14 19:30N 39°13' E 009°03'0 0.0
2018-Apr-14 19:00N 39°13' E 009°03'0 0.0
2018-Apr-14 18:30N 39°13' E 009°03'0 0.0
2018-Apr-14 18:00N 39°13' E 009°03'0 0.0
2018-Apr-14 17:30N 39°13' E 009°03'0 0.0
2018-Apr-14 16:58N 39°13' E 009°03'0 0.0
2018-Apr-14 16:30N 39°13' E 009°03'0 0.0
2018-Apr-14 16:01N 39°13' E 009°03'0 0.0
2018-Apr-14 15:30N 39°13' E 009°03'0 0.0
2018-Apr-14 15:00N 39°13' E 009°03'0 0.0
2018-Apr-14 14:30N 39°13' E 009°03'0 0.0
2018-Apr-14 14:00N 39°13' E 009°03'0 0.0
2018-Apr-14 13:30N 39°13' E 009°03'2 4.9
2018-Apr-14 13:00N 39°12' E 009°06'1 2.1
2018-Apr-14 12:30N 39°13' E 009°06'1 1.0
2018-Apr-14 12:00N 39°12' E 009°07'0 0.6
2018-Apr-14 11:30N 39°13' E 009°07'0 0.0
2018-Apr-14 11:00N 39°13' E 009°07'0 0.0
2018-Apr-14 10:30N 39°13' E 009°07'0 0.0
2018-Apr-14 10:00N 39°13' E 009°07'0 0.7
2018-Apr-14 09:30N 39°13' E 009°06'1 2.4
2018-Apr-14 09:00N 39°12' E 009°05'1 2.7
2018-Apr-14 08:30N 39°13' E 009°03'0 0.0
2018-Apr-14 07:59N 39°13' E 009°03'0 0.2
2018-Apr-14 07:30N 39°13' E 009°04'0 0.2
2018-Apr-14 07:00N 39°13' E 009°03'0 0.0
2018-Apr-14 06:30N 39°13' E 009°03'0 0.0
2018-Apr-14 06:00N 39°13' E 009°03'1 1.8
2018-Apr-14 05:30N 39°13' E 009°04'1 3.0
2018-Apr-14 05:00N 39°13' E 009°06'1 2.2
2018-Apr-14 04:30N 39°12' E 009°06'1 2.4
2018-Apr-14 04:00N 39°12' E 009°05'2 3.0
2018-Apr-14 03:30N 39°13' E 009°03'0 0.0
2018-Apr-14 03:00N 39°13' E 009°03'0 0.0
2018-Apr-14 02:29N 39°13' E 009°03'0 0.0
2018-Apr-14 02:00N 39°13' E 009°03'0 0.0
2018-Apr-14 01:30N 39°13' E 009°03'0 0.0
2018-Apr-14 01:01N 39°13' E 009°03'0 0.0
2018-Apr-14 00:31N 39°13' E 009°03'0 0.0
2018-Apr-13 23:59N 39°13' E 009°03'0 0.0
2018-Apr-13 23:30N 39°13' E 009°03'0 0.0
2018-Apr-13 22:59N 39°13' E 009°03'0 0.0
2018-Apr-13 22:30N 39°13' E 009°03'0 0.0
2018-Apr-13 22:00N 39°13' E 009°03'0 0.0
2018-Apr-13 21:30N 39°13' E 009°03'0 0.0
2018-Apr-13 21:00N 39°13' E 009°03'0 0.0
2018-Apr-13 20:29N 39°13' E 009°03'0 0.0
2018-Apr-13 20:00N 39°13' E 009°03'0 0.0
2018-Apr-13 19:30N 39°13' E 009°03'0 0.0
2018-Apr-13 18:59N 39°13' E 009°03'0 0.0
2018-Apr-13 18:30N 39°13' E 009°03'0 0.0
2018-Apr-13 18:00N 39°13' E 009°03'0 0.0
2018-Apr-13 17:30N 39°13' E 009°03'0 0.0
2018-Apr-13 17:00N 39°13' E 009°03'0 0.0
2018-Apr-13 16:30N 39°13' E 009°03'0 0.0
2018-Apr-13 15:59N 39°13' E 009°03'0 0.0
2018-Apr-13 15:30N 39°13' E 009°03'0 0.0
2018-Apr-13 14:59N 39°13' E 009°03'0 0.0
2018-Apr-13 14:30N 39°13' E 009°03'0 0.0
2018-Apr-13 13:59N 39°13' E 009°03'0 0.0
2018-Apr-13 13:30N 39°13' E 009°03'2 3.8
2018-Apr-13 13:00N 39°12' E 009°05'3 6.1
2018-Apr-13 12:30N 39°09' E 009°03'3 6.1
2018-Apr-13 12:00N 39°11' E 009°06'1 2.8
2018-Apr-13 11:30N 39°13' E 009°07'0 0.0
2018-Apr-13 11:00N 39°13' E 009°07'0 0.0
2018-Apr-13 10:29N 39°13' E 009°07'0 0.0
2018-Apr-13 09:59N 39°13' E 009°07'0 0.0
2018-Apr-13 09:30N 39°13' E 009°07'0 0.0
2018-Apr-13 08:59N 39°13' E 009°07'0 0.0
2018-Apr-13 08:30N 39°13' E 009°07'0 0.0
2018-Apr-13 08:00N 39°13' E 009°07'2 3.3
2018-Apr-13 07:30N 39°12' E 009°05'1 2.3
2018-Apr-13 07:00N 39°13' E 009°03'0 0.0
2018-Apr-13 06:30N 39°13' E 009°03'0 0.0
2018-Apr-13 06:00N 39°13' E 009°03'0 0.0
2018-Apr-13 05:30N 39°13' E 009°03'1 2.1
2018-Apr-13 05:00N 39°13' E 009°05'0 0.1
2018-Apr-13 04:30N 39°13' E 009°05'0 0.0
2018-Apr-13 04:00N 39°13' E 009°05'0 0.0
2018-Apr-13 03:29N 39°13' E 009°05'0 0.0
2018-Apr-13 03:00N 39°13' E 009°05'0 0.0
2018-Apr-13 02:30N 39°13' E 009°05'0 0.0
2018-Apr-13 02:00N 39°13' E 009°05'0 0.0
2018-Apr-13 01:29N 39°13' E 009°05'0 0.1
2018-Apr-13 01:00N 39°13' E 009°05'0 0.4
2018-Apr-13 00:30N 39°13' E 009°04'1 1.7
2018-Apr-13 00:00N 39°13' E 009°03'0 0.0
2018-Apr-12 23:30N 39°13' E 009°03'0 0.0
2018-Apr-12 23:00N 39°13' E 009°03'0 0.0
2018-Apr-12 22:30N 39°13' E 009°03'0 0.0
2018-Apr-12 21:58N 39°13' E 009°03'0 0.0
2018-Apr-12 21:30N 39°13' E 009°03'0 0.0
2018-Apr-12 21:00N 39°13' E 009°03'0 0.0
2018-Apr-12 20:30N 39°13' E 009°03'0 0.0
2018-Apr-12 20:00N 39°13' E 009°03'0 0.0
2018-Apr-12 19:30N 39°13' E 009°03'0 0.0
2018-Apr-12 19:00N 39°13' E 009°03'0 0.0
2018-Apr-12 18:30N 39°13' E 009°03'0 0.0
2018-Apr-12 18:00N 39°13' E 009°03'0 0.0
2018-Apr-12 17:29N 39°13' E 009°03'1 1.7
2018-Apr-12 17:00N 39°13' E 009°04'1 1.5
2018-Apr-12 16:30N 39°13' E 009°03'0 0.0
2018-Apr-12 16:00N 39°13' E 009°03'0 0.0
2018-Apr-12 15:30N 39°13' E 009°03'0 0.0
2018-Apr-12 15:00N 39°13' E 009°03'0 0.0
2018-Apr-12 14:30N 39°13' E 009°03'0 0.0
2018-Apr-12 14:00N 39°13' E 009°03'0 0.0
2018-Apr-12 13:30N 39°13' E 009°03'0 0.0
2018-Apr-12 12:59N 39°13' E 009°03'0 0.0
2018-Apr-12 12:30N 39°13' E 009°03'0 0.0
2018-Apr-12 12:00N 39°13' E 009°03'2 4.9
2018-Apr-12 11:29N 39°12' E 009°06'0 0.4
2018-Apr-12 11:00N 39°12' E 009°07'1 1.9
2018-Apr-12 10:29N 39°12' E 009°05'1 1.6
2018-Apr-12 10:00N 39°13' E 009°05'0 0.0
2018-Apr-12 09:30N 39°13' E 009°05'0 0.0
2018-Apr-12 08:59N 39°13' E 009°05'0 0.0
2018-Apr-12 08:30N 39°13' E 009°05'1 1.1
2018-Apr-12 08:00N 39°13' E 009°04'0 0.8
2018-Apr-12 07:30N 39°13' E 009°04'0 0.0
2018-Apr-12 06:59N 39°13' E 009°04'1 1.3
2018-Apr-12 06:29N 39°13' E 009°04'1 1.4
2018-Apr-12 05:59N 39°13' E 009°04'0 0.0
2018-Apr-12 05:30N 39°13' E 009°04'0 0.0
2018-Apr-12 05:00N 39°13' E 009°04'0 0.0
2018-Apr-12 04:30N 39°13' E 009°04'0 0.0
2018-Apr-12 03:59N 39°13' E 009°04'0 0.0
2018-Apr-12 03:30N 39°13' E 009°04'0 0.0
2018-Apr-12 02:59N 39°13' E 009°04'0 0.0
2018-Apr-12 02:30N 39°13' E 009°04'0 0.0
2018-Apr-12 02:00N 39°13' E 009°04'0 0.0
2018-Apr-12 01:30N 39°13' E 009°04'0 0.0
2018-Apr-12 01:00N 39°13' E 009°04'0 0.0
2018-Apr-12 00:29N 39°13' E 009°04'0 0.0
2018-Apr-12 00:00N 39°13' E 009°04'0 0.0
2018-Apr-11 23:30N 39°13' E 009°04'0 0.0
2018-Apr-11 23:00N 39°13' E 009°04'0 0.0
2018-Apr-11 22:30N 39°13' E 009°04'0 0.0
2018-Apr-11 22:00N 39°13' E 009°04'0 0.0
2018-Apr-11 21:30N 39°13' E 009°04'0 0.0
2018-Apr-11 20:59N 39°13' E 009°04'0 0.0
2018-Apr-11 20:30N 39°13' E 009°04'0 0.0
2018-Apr-11 20:00N 39°13' E 009°04'0 0.0
2018-Apr-11 19:29N 39°13' E 009°04'1 1.1
2018-Apr-11 19:00N 39°13' E 009°04'0 0.3
2018-Apr-11 18:30N 39°13' E 009°04'2 4.2
2018-Apr-11 18:00N 39°12' E 009°06'2 3.0
2018-Apr-11 17:30N 39°13' E 009°05'0 0.0
2018-Apr-11 17:00N 39°13' E 009°05'0 0.0
2018-Apr-11 16:30N 39°13' E 009°05'0 0.0
2018-Apr-11 16:00N 39°13' E 009°05'1 1.9
2018-Apr-11 15:27N 39°12' E 009°05'1 2.3
2018-Apr-11 15:00N 39°13' E 009°05'0 0.0
2018-Apr-11 14:30N 39°13' E 009°05'0 0.0
2018-Apr-11 14:00N 39°13' E 009°05'0 0.0
2018-Apr-11 13:30N 39°13' E 009°05'0 0.0
2018-Apr-11 12:57N 39°13' E 009°05'0 0.0
2018-Apr-11 12:30N 39°13' E 009°05'0 0.0
2018-Apr-11 12:00N 39°13' E 009°05'0 0.8
2018-Apr-11 11:29N 39°13' E 009°04'0 0.8
2018-Apr-11 11:00N 39°13' E 009°05'0 0.0
2018-Apr-11 10:30N 39°13' E 009°05'1 1.0
2018-Apr-11 10:00N 39°13' E 009°04'0 0.8
2018-Apr-11 09:30N 39°13' E 009°04'1 2.4
2018-Apr-11 09:00N 39°12' E 009°05'0 0.8
2018-Apr-11 08:30N 39°13' E 009°05'0 0.0
2018-Apr-11 08:00N 39°13' E 009°05'0 0.0
2018-Apr-11 07:30N 39°13' E 009°05'0 0.2
2018-Apr-11 07:00N 39°13' E 009°04'1 1.6
2018-Apr-11 06:30N 39°13' E 009°04'1 1.1
2018-Apr-11 06:00N 39°13' E 009°04'1 1.4
2018-Apr-11 05:30N 39°12' E 009°05'0 0.7
2018-Apr-11 04:58N 39°13' E 009°05'0 0.0
2018-Apr-11 04:29N 39°13' E 009°05'0 0.0
2018-Apr-11 04:00N 39°13' E 009°05'0 0.0
2018-Apr-11 03:30N 39°13' E 009°05'0 0.0
2018-Apr-11 03:00N 39°13' E 009°05'0 0.0
2018-Apr-11 02:30N 39°13' E 009°05'0 0.0
2018-Apr-11 01:59N 39°13' E 009°05'0 0.0
2018-Apr-11 01:30N 39°13' E 009°05'0 0.0
2018-Apr-11 01:00N 39°13' E 009°05'0 0.0
2018-Apr-11 00:29N 39°13' E 009°05'0 0.0
2018-Apr-11 00:00N 39°13' E 009°05'0 0.0
2018-Apr-10 23:30N 39°13' E 009°05'0 0.0
2018-Apr-10 23:00N 39°13' E 009°05'0 0.0
2018-Apr-10 22:30N 39°13' E 009°05'0 0.0
2018-Apr-10 21:59N 39°13' E 009°05'0 0.2
2018-Apr-10 21:30N 39°13' E 009°04'1 2.3
2018-Apr-10 21:00N 39°12' E 009°05'1 2.1
2018-Apr-10 20:30N 39°13' E 009°05'0 0.0
2018-Apr-10 20:00N 39°13' E 009°05'0 0.0
2018-Apr-10 19:30N 39°13' E 009°05'0 0.0
2018-Apr-10 18:58N 39°13' E 009°05'0 0.0
2018-Apr-10 18:29N 39°13' E 009°05'0 0.0
2018-Apr-10 18:00N 39°13' E 009°05'0 0.0
2018-Apr-10 17:30N 39°13' E 009°05'0 0.8
2018-Apr-10 17:00N 39°13' E 009°04'1 1.1
2018-Apr-10 16:30N 39°13' E 009°03'0 0.0
2018-Apr-10 16:00N 39°13' E 009°03'0 0.0
2018-Apr-10 15:29N 39°13' E 009°03'0 0.0
2018-Apr-10 15:00N 39°13' E 009°03'0 0.0
2018-Apr-10 14:30N 39°13' E 009°03'0 0.0
2018-Apr-10 14:00N 39°13' E 009°03'0 0.0
2018-Apr-10 13:30N 39°13' E 009°03'0 0.0
2018-Apr-10 13:00N 39°13' E 009°03'0 0.0
2018-Apr-10 12:30N 39°13' E 009°03'0 0.0
2018-Apr-10 12:00N 39°13' E 009°03'0 0.0
2018-Apr-10 11:30N 39°13' E 009°03'0 0.0
2018-Apr-10 10:59N 39°13' E 009°03'0 0.0
2018-Apr-10 10:30N 39°13' E 009°03'0 0.0
2018-Apr-10 09:59N 39°13' E 009°03'0 0.0
2018-Apr-10 09:30N 39°13' E 009°03'0 0.0
2018-Apr-10 09:00N 39°13' E 009°03'1 1.0
2018-Apr-10 08:30N 39°13' E 009°04'3 6.4
2018-Apr-10 08:00N 39°10' E 009°05'4 8.9
2018-Apr-10 07:30N 39°06' E 009°02'510.1
2018-Apr-10 07:00N 39°10' E 009°05'3 5.7
2018-Apr-10 06:30N 39°13' E 009°03'1 1.1
2018-Apr-10 06:00N 39°13' E 009°04'1 1.1
2018-Apr-10 05:30N 39°12' E 009°05'1 2.1
2018-Apr-10 05:00N 39°13' E 009°03'  

Dump ship's entire track history